»·PEaware :: N39VB L52-L88

N39VB :: L52-L88

FLIGHT INFORMATION

Flight Status: Arrived
Operator: Privately registered:
United States
More flights under this callsign
Pilot: Anonymous 44730 (44730)
Aircraft: CESSNA 172 SKYHAWK
(C172)
More flights by this aircraft type
Origin: L52 Oceano Co
United States
Destination: L88 New Cuyama
United States
More flights between these airports :: More routes between these airports
Route:
File this flight plan on PilotEdge
Remarks:
Altitude:
(Current/Filed)
7,500ft
Speed:
(Current/Filed)
110kts
Departed: 13-Nov-23 04:30 PM
Arrived: 13-Nov-23 05:26 PM
Distance/Time
Traveled:
47nm/0:56
Distance/Time
To Go:
Arrived

Flight Plot

Page will automatically refresh every two minutes.


Map Options




Map Legend


Flown Route
Filed Route
Departure Airport
Arrival Airport
Navaid (VOR, NDB)
Fix

Horizontal Profiles

Position Reports

Time Latitude Longitude Heading Altitude Ground
Speed
13-Nov-23 16:18 35.102097 -120.622280 212 16ft 0kts
13-Nov-23 16:19 35.102097 -120.622280 212 16ft 0kts
13-Nov-23 16:20 35.102097 -120.622280 212 16ft 0kts
13-Nov-23 16:21 35.102097 -120.622280 212 16ft 0kts
13-Nov-23 16:22 35.102097 -120.622280 212 16ft 0kts
13-Nov-23 16:23 35.102097 -120.622280 212 16ft 0kts
13-Nov-23 16:24 35.102097 -120.622280 212 16ft 0kts
13-Nov-23 16:25 35.102097 -120.622280 212 16ft 0kts
13-Nov-23 16:26 35.102097 -120.622280 213 16ft 0kts
13-Nov-23 16:27 35.100306 -120.621013 123 17ft 32kts
13-Nov-23 16:28 35.099570 -120.619619 74 17ft 0kts
13-Nov-23 16:29 35.105821 -120.628346 306 258ft 81kts
13-Nov-23 16:30 35.103771 -120.639161 122 1217ft 86kts
13-Nov-23 16:31 35.093667 -120.610213 115 2037ft 95kts
13-Nov-23 16:32 35.083748 -120.580567 119 2859ft 94kts
13-Nov-23 16:33 35.072840 -120.553582 121 3693ft 87kts
13-Nov-23 16:34 35.062865 -120.526340 122 4401ft 88kts
13-Nov-23 16:35 35.052088 -120.499780 124 5059ft 87kts
13-Nov-23 16:36 35.042051 -120.472912 123 5684ft 86kts
13-Nov-23 16:37 35.032740 -120.446558 127 6251ft 84kts
13-Nov-23 16:38 35.023787 -120.420718 122 6738ft 88kts
13-Nov-23 16:39 35.014632 -120.393701 127 7248ft 85kts
13-Nov-23 16:40 35.003913 -120.366746 127 7630ft 90kts
13-Nov-23 16:41 34.993708 -120.338422 127 7641ft 89kts
13-Nov-23 16:42 34.984599 -120.309079 128 7650ft 89kts
13-Nov-23 16:43 34.973103 -120.282449 129 7706ft 90kts
13-Nov-23 16:44 34.962995 -120.253571 124 7671ft 91kts
13-Nov-23 16:45 34.952198 -120.225960 128 7593ft 92kts
13-Nov-23 16:46 34.940772 -120.198903 132 7595ft 86kts
13-Nov-23 16:47 34.930562 -120.172838 128 7716ft 84kts
13-Nov-23 16:48 34.919588 -120.147859 133 7728ft 84kts
13-Nov-23 16:49 34.908803 -120.122525 135 7783ft 84kts
13-Nov-23 16:50 34.895965 -120.098926 147 7848ft 80kts
13-Nov-23 16:51 34.883977 -120.072780 130 7819ft 91kts
13-Nov-23 16:52 34.872425 -120.044773 123 7799ft 94kts
13-Nov-23 16:53 34.860588 -120.016770 130 7814ft 88kts
13-Nov-23 16:54 34.849355 -119.991244 132 7973ft 83kts
13-Nov-23 16:55 34.837967 -119.962371 128 7768ft 100kts
13-Nov-23 16:56 34.825507 -119.933577 131 7751ft 92kts
13-Nov-23 16:57 34.813712 -119.905601 130 7814ft 85kts
13-Nov-23 16:58 34.802323 -119.878761 125 7896ft 95kts
13-Nov-23 16:59 34.788679 -119.849723 132 8164ft 94kts
13-Nov-23 17:00 34.771619 -119.821832 126 8308ft 101kts
13-Nov-23 17:01 34.757704 -119.789623 128 8436ft 103kts
13-Nov-23 17:02 34.740349 -119.766568 191 8624ft 88kts
13-Nov-23 17:03 34.716477 -119.777315 203 8805ft 86kts
13-Nov-23 17:04 34.695809 -119.781587 108 9011ft 118kts
13-Nov-23 17:05 34.731613 -119.765931 5 9002ft 146kts
13-Nov-23 17:06 34.769522 -119.749667 46 9034ft 144kts
13-Nov-23 17:07 34.790343 -119.710729 82 9026ft 134kts
13-Nov-23 17:08 34.788818 -119.669061 106 9064ft 124kts
13-Nov-23 17:09 34.785721 -119.627324 104 9110ft 126kts
13-Nov-23 17:10 34.790471 -119.584337 115 9100ft 123kts
13-Nov-23 17:11 34.775902 -119.549705 132 9222ft 111kts
13-Nov-23 17:12 34.749092 -119.538190 170 9183ft 100kts
13-Nov-23 17:13 34.722703 -119.550558 192 8990ft 103kts
13-Nov-23 17:14 34.706350 -119.568195 349 8678ft 140kts
13-Nov-23 17:15 34.746736 -119.563060 358 8635ft 147kts
13-Nov-23 17:16 34.787399 -119.563299 4 8037ft 148kts
13-Nov-23 17:17 34.827073 -119.555930 1 6574ft 141kts
13-Nov-23 17:18 34.865110 -119.552318 5 5174ft 134kts
13-Nov-23 17:19 34.900182 -119.557161 322 3768ft 125kts
13-Nov-23 17:20 34.918014 -119.590786 283 2853ft 115kts
13-Nov-23 17:21 34.926228 -119.627110 270 2702ft 110kts
13-Nov-23 17:22 34.929542 -119.664133 277 2733ft 111kts
13-Nov-23 17:23 34.938428 -119.698001 281 2600ft 101kts
13-Nov-23 17:24 34.947401 -119.703511 114 2592ft 69kts
13-Nov-23 17:25 34.940178 -119.686170 122 2172ft 19kts
13-Nov-23 17:26 34.937865 -119.680615 115 2196ft 0kts
13-Nov-23 17:27 34.937736 -119.680253 298 2198ft 0kts
13-Nov-23 17:28 34.937744 -119.680274 294 2198ft 0kts
13-Nov-23 17:29 34.937746 -119.680279 293 2197ft 0kts

Navigation Log

Ident Type
Flight plan parsing failed, navigation log unavailable